Time;durP1;ratioP1;P1;durP2;ratioP2;P2;SDS_P1;SDS_P2;PMS_P1;PMS_P2;Temp;Humidity;BMP_temperature;BMP_pressure;BME280_temperature;BME280_humidity;BME280_pressure;Samples;Min_cycle;Max_cycle;Signal;HPM_P1;HPM_P2
2021/08/22 00:01:59;;;;;;;3.50;2.80;;;19.30;99.90;;;;;;5074425;28;20459;-73
2021/08/22 00:04:25;;;;;;;2.90;2.40;;;19.30;99.90;;;;;;5074572;28;20545;-74
2021/08/22 00:06:52;;;;;;;3.57;2.43;;;19.30;99.90;;;;;;5074403;28;20458;-73
2021/08/22 00:09:20;;;;;;;3.00;2.70;;;19.20;99.90;;;;;;5074370;28;20458;-74
2021/08/22 00:11:47;;;;;;;2.60;2.40;;;19.20;99.90;;;;;;5074012;28;20459;-74
2021/08/22 00:14:13;;;;;;;4.90;2.80;;;19.20;99.90;;;;;;5074733;28;20481;-74
2021/08/22 00:16:41;;;;;;;2.77;2.57;;;19.20;99.90;;;;;;5074071;28;20466;-75
2021/08/22 00:19:08;;;;;;;2.47;2.27;;;19.10;99.90;;;;;;5074041;28;20882;-74
2021/08/22 00:21:35;;;;;;;2.50;2.30;;;19.00;99.90;;;;;;5074401;28;20515;-74
2021/08/22 00:24:01;;;;;;;3.80;2.97;;;19.00;99.90;;;;;;5073873;28;20478;-74
2021/08/22 00:26:29;;;;;;;2.50;2.30;;;19.00;99.90;;;;;;5074153;28;20469;-74
2021/08/22 00:28:56;;;;;;;2.60;2.40;;;18.90;99.90;;;;;;5074128;28;20458;-74
2021/08/22 00:31:23;;;;;;;2.70;2.50;;;18.90;99.90;;;;;;5074144;28;20458;-73
2021/08/22 00:33:49;;;;;;;2.97;2.67;;;18.80;99.90;;;;;;5074166;28;20477;-74
2021/08/22 00:36:16;;;;;;;4.43;2.20;;;18.80;99.90;;;;;;5074381;28;20458;-74
2021/08/22 00:38:43;;;;;;;3.33;2.53;;;18.70;99.90;;;;;;5073989;28;20469;-75
2021/08/22 00:41:10;;;;;;;3.23;2.93;;;18.80;99.90;;;;;;5074476;28;20920;-74
2021/08/22 00:43:38;;;;;;;2.77;2.57;;;18.70;99.90;;;;;;5073408;28;20493;-73
2021/08/22 00:46:05;;;;;;;4.17;2.60;;;18.70;99.90;;;;;;5073410;28;20477;-73
2021/08/22 00:48:32;;;;;;;4.60;3.00;;;18.70;99.90;;;;;;5074510;28;20860;-74
2021/08/22 00:50:59;;;;;;;2.93;2.67;;;18.70;99.90;;;;;;5074010;28;20482;-75
2021/08/22 00:53:26;;;;;;;4.23;3.30;;;18.70;99.90;;;;;;5074336;28;20461;-74
2021/08/22 00:55:57;;;;;;;3.20;2.90;;;18.70;99.90;;;;;;5073609;28;20466;-74
2021/08/22 00:58:24;;;;;;;2.60;2.07;;;18.70;99.90;;;;;;5073928;28;20774;-74
2021/08/22 01:00:54;;;;;;;3.03;2.73;;;18.60;99.90;;;;;;5074009;28;20468;-74
2021/08/22 01:03:25;;;;;;;6.47;2.50;;;18.70;99.90;;;;;;5073555;28;20909;-74
2021/08/22 01:06:01;;;;;;;3.10;2.67;;;18.70;99.90;;;;;;5073587;28;20493;-74
2021/08/22 01:08:33;;;;;;;3.43;2.97;;;18.70;99.90;;;;;;5074095;28;20453;-74
2021/08/22 01:11:06;;;;;;;3.90;3.00;;;18.70;99.90;;;;;;5073824;28;20461;-74
2021/08/22 01:13:36;;;;;;;2.67;2.47;;;18.70;99.90;;;;;;5073789;28;20810;-74
2021/08/22 01:16:07;;;;;;;2.90;2.70;;;18.70;99.90;;;;;;5073796;28;21052;-73
2021/08/22 01:18:36;;;;;;;3.07;2.57;;;18.70;99.90;;;;;;5075201;28;20442;-74
2021/08/22 01:21:09;;;;;;;2.77;2.57;;;18.70;99.90;;;;;;5077357;28;20930;-74
2021/08/22 01:23:40;;;;;;;4.07;2.80;;;18.70;99.90;;;;;;5077549;28;20449;-74
2021/08/22 01:26:07;;;;;;;4.80;3.30;;;18.70;99.90;;;;;;5077652;28;20446;-75
2021/08/22 01:28:36;;;;;;;5.50;2.80;;;18.70;99.90;;;;;;5077794;28;20466;-74
2021/08/22 01:31:09;;;;;;;2.67;2.43;;;18.70;99.90;;;;;;5077225;28;20476;-74
2021/08/22 01:33:38;;;;;;;3.17;2.93;;;18.70;99.90;;;;;;5077530;28;20734;-75
2021/08/22 01:36:05;;;;;;;3.03;2.67;;;18.60;99.90;;;;;;5076729;28;20489;-74
2021/08/22 01:38:32;;;;;;;5.93;2.97;;;18.70;99.90;;;;;;5077226;28;20794;-74
2021/08/22 01:40:59;;;;;;;5.10;2.80;;;18.70;99.90;;;;;;5077079;28;20930;-74
2021/08/22 01:43:28;;;;;;;5.80;2.57;;;18.70;99.90;;;;;;5076938;28;20992;-74
2021/08/22 01:45:59;;;;;;;3.30;2.93;;;18.70;99.90;;;;;;5076825;28;20551;-74
2021/08/22 01:48:27;;;;;;;3.80;3.00;;;18.70;99.90;;;;;;5076797;28;20438;-74
2021/08/22 01:50:57;;;;;;;3.23;2.93;;;18.70;99.90;;;;;;5077262;28;20499;-74
2021/08/22 01:53:24;;;;;;;3.83;2.60;;;18.70;99.90;;;;;;5077174;28;20461;-74
2021/08/22 01:55:52;;;;;;;4.70;3.20;;;18.70;99.90;;;;;;5076639;28;20468;-74
2021/08/22 01:58:18;;;;;;;3.13;2.83;;;18.70;99.90;;;;;;5076792;28;20465;-74
2021/08/22 02:00:45;;;;;;;6.07;3.17;;;18.70;99.90;;;;;;5077063;28;20770;-74
2021/08/22 02:03:17;;;;;;;3.83;2.87;;;18.70;99.90;;;;;;5076861;28;20458;-74
2021/08/22 02:05:46;;;;;;;6.80;2.80;;;18.70;99.90;;;;;;5076216;28;20467;-74
2021/08/22 02:08:19;;;;;;;3.43;3.13;;;18.70;99.90;;;;;;5076696;28;20465;-74
2021/08/22 02:10:50;;;;;;;3.30;3.00;;;18.70;99.90;;;;;;5076878;28;20442;-75
2021/08/22 02:13:20;;;;;;;2.90;2.60;;;18.70;99.90;;;;;;5077093;28;20774;-75
2021/08/22 02:15:49;;;;;;;4.40;3.13;;;18.70;99.90;;;;;;5076616;28;20450;-75
2021/08/22 02:18:16;;;;;;;3.83;2.90;;;18.70;99.90;;;;;;5076764;28;20454;-74
2021/08/22 02:20:45;;;;;;;3.10;2.80;;;18.70;99.90;;;;;;5076384;28;20466;-74
2021/08/22 02:23:13;;;;;;;3.77;3.20;;;18.80;99.90;;;;;;5076339;28;20490;-74
2021/08/22 02:25:43;;;;;;;3.80;3.00;;;18.70;99.90;;;;;;5076108;28;20485;-73
2021/08/22 02:28:10;;;;;;;3.47;2.83;;;18.70;99.90;;;;;;5076504;28;20465;-74
2021/08/22 02:30:40;;;;;;;3.80;2.80;;;18.70;99.90;;;;;;5076118;28;20465;-74
2021/08/22 02:33:08;;;;;;;3.03;2.77;;;18.70;99.90;;;;;;5076423;28;20812;-74
2021/08/22 02:35:37;;;;;;;3.23;2.50;;;18.70;99.90;;;;;;5076048;28;20458;-74
2021/08/22 02:38:04;;;;;;;2.97;2.67;;;18.60;99.90;;;;;;5076040;28;20461;-73
2021/08/22 02:40:31;;;;;;;3.20;2.90;;;18.60;99.90;;;;;;5076439;28;20944;-74
2021/08/22 02:42:59;;;;;;;3.87;3.03;;;18.60;99.90;;;;;;5077555;28;20478;-74
2021/08/22 02:45:27;;;;;;;3.40;2.83;;;18.50;99.90;;;;;;5080568;28;20486;-75
2021/08/22 02:47:57;;;;;;;3.30;2.73;;;18.50;99.90;;;;;;5076601;28;20557;-73
2021/08/22 02:50:24;;;;;;;2.87;2.57;;;18.50;99.90;;;;;;5078132;28;20780;-73
2021/08/22 02:52:51;;;;;;;2.90;2.30;;;18.50;99.90;;;;;;5076685;28;20458;-74
2021/08/22 02:55:18;;;;;;;8.40;3.60;;;18.50;99.90;;;;;;5079856;28;20459;-75
2021/08/22 02:57:44;;;;;;;3.07;2.77;;;18.50;99.90;;;;;;5076231;28;20458;-74
2021/08/22 03:00:14;;;;;;;3.90;2.90;;;18.50;99.90;;;;;;5078333;28;20458;-74
2021/08/22 03:02:40;;;;;;;3.30;3.00;;;18.40;99.90;;;;;;5078709;28;20462;-78
2021/08/22 03:05:08;;;;;;;3.23;3.00;;;18.40;99.90;;;;;;5080199;28;20486;-74
2021/08/22 03:07:35;;;;;;;4.27;2.90;;;18.40;99.90;;;;;;5083659;28;20473;-74
2021/08/22 03:10:01;;;;;;;6.07;2.70;;;18.40;99.90;;;;;;5077974;28;20458;-74
2021/08/22 03:12:28;;;;;;;6.67;3.20;;;18.40;99.90;;;;;;5075803;28;20458;-74
2021/08/22 03:14:55;;;;;;;3.33;3.03;;;18.40;99.90;;;;;;5076327;28;20451;-74
2021/08/22 03:17:23;;;;;;;2.60;2.40;;;18.40;99.90;;;;;;5076509;28;20462;-74
2021/08/22 03:19:51;;;;;;;2.80;2.50;;;18.40;99.90;;;;;;5075636;28;20454;-74
2021/08/22 03:22:18;;;;;;;4.17;3.10;;;18.30;99.90;;;;;;5077262;28;20466;-74
2021/08/22 03:24:45;;;;;;;3.47;3.17;;;18.40;99.90;;;;;;5074931;28;20485;-76
2021/08/22 03:27:12;;;;;;;3.47;2.50;;;18.30;99.90;;;;;;5075287;28;20941;-75
2021/08/22 03:29:38;;;;;;;3.90;3.60;;;18.30;99.90;;;;;;5077797;28;20458;-75
2021/08/22 03:32:06;;;;;;;4.37;3.20;;;18.30;99.90;;;;;;5075834;28;20458;-74
2021/08/22 03:34:34;;;;;;;3.53;2.87;;;18.30;99.90;;;;;;5080463;28;20914;-74
2021/08/22 03:37:01;;;;;;;3.23;3.00;;;18.30;99.90;;;;;;5074809;28;20751;-74
2021/08/22 03:39:27;;;;;;;3.50;2.70;;;18.30;99.90;;;;;;5075550;28;20489;-74
2021/08/22 03:41:55;;;;;;;3.20;2.83;;;18.20;99.90;;;;;;5074491;28;20493;-74
2021/08/22 03:44:21;;;;;;;3.33;3.00;;;18.20;99.90;;;;;;5074737;28;20464;-74
2021/08/22 03:46:51;;;;;;;3.40;2.80;;;18.20;99.90;;;;;;5074933;28;20510;-76
2021/08/22 03:49:18;;;;;;;4.87;2.70;;;18.20;99.90;;;;;;5074776;28;20465;-74
2021/08/22 03:51:46;;;;;;;3.97;3.00;;;18.20;99.90;;;;;;5074422;28;20481;-74
2021/08/22 03:54:13;;;;;;;3.63;2.90;;;18.20;99.90;;;;;;5074725;28;20458;-74
2021/08/22 03:56:40;;;;;;;3.43;3.10;;;18.10;99.90;;;;;;5074720;28;20789;-74
2021/08/22 03:59:07;;;;;;;4.00;3.10;;;18.10;99.90;;;;;;5074847;28;20736;-74
2021/08/22 04:01:35;;;;;;;3.30;2.83;;;18.10;99.90;;;;;;5074589;28;20780;-74
2021/08/22 04:04:03;;;;;;;4.07;2.93;;;18.10;99.90;;;;;;5074349;28;20457;-74
2021/08/22 04:06:30;;;;;;;6.73;2.83;;;18.10;99.90;;;;;;5074674;28;20482;-75
2021/08/22 04:09:00;;;;;;;3.17;2.40;;;18.00;99.90;;;;;;5075332;28;20454;-73
2021/08/22 04:11:27;;;;;;;3.27;2.93;;;18.00;99.90;;;;;;5074132;28;20885;-74
2021/08/22 04:13:54;;;;;;;3.67;2.90;;;18.00;99.90;;;;;;5077096;28;20457;-73
2021/08/22 04:16:21;;;;;;;3.17;2.87;;;18.00;99.90;;;;;;5076487;28;20450;-74
2021/08/22 04:18:48;;;;;;;3.30;2.70;;;18.00;99.90;;;;;;5075978;28;20458;-74
2021/08/22 04:21:14;;;;;;;3.80;2.80;;;18.00;99.90;;;;;;5076498;28;20458;-74
2021/08/22 04:23:41;;;;;;;3.50;2.90;;;18.00;99.90;;;;;;5076613;28;20469;-75
2021/08/22 04:26:09;;;;;;;4.70;2.90;;;18.00;99.90;;;;;;5076767;28;20474;-74
2021/08/22 04:28:37;;;;;;;3.17;2.57;;;18.00;99.90;;;;;;5078381;28;20454;-74
2021/08/22 04:31:04;;;;;;;3.87;2.80;;;18.00;99.90;;;;;;5076695;28;20470;-74
2021/08/22 04:33:30;;;;;;;2.40;2.20;;;18.00;99.90;;;;;;5084955;28;20458;-75
2021/08/22 04:35:57;;;;;;;2.93;2.63;;;18.00;99.90;;;;;;5089404;28;20450;-75
2021/08/22 04:38:24;;;;;;;5.03;2.93;;;18.00;99.90;;;;;;5093378;28;20454;-75
2021/08/22 04:40:51;;;;;;;2.80;2.60;;;18.00;99.90;;;;;;5090265;28;20789;-75
2021/08/22 04:43:19;;;;;;;2.50;2.30;;;18.00;99.90;;;;;;5085295;28;20516;-74
2021/08/22 04:45:45;;;;;;;3.40;3.10;;;18.00;99.90;;;;;;5076471;28;20813;-74
2021/08/22 04:48:12;;;;;;;2.97;2.70;;;18.00;99.90;;;;;;5074448;28;20461;-74
2021/08/22 04:50:39;;;;;;;2.50;2.30;;;18.10;99.90;;;;;;5075160;28;20454;-74
2021/08/22 04:53:06;;;;;;;2.97;2.60;;;18.10;99.90;;;;;;5075848;28;20458;-74
2021/08/22 04:55:33;;;;;;;2.90;2.70;;;18.10;99.90;;;;;;5077575;28;20454;-73
2021/08/22 04:57:59;;;;;;;11.00;3.07;;;18.10;99.90;;;;;;5077594;28;20457;-74
2021/08/22 05:00:27;;;;;;;2.67;2.43;;;18.10;99.90;;;;;;5077490;28;20499;-74
2021/08/22 05:02:54;;;;;;;3.50;2.77;;;18.10;99.90;;;;;;5078046;28;20800;-74
2021/08/22 05:05:21;;;;;;;3.20;2.43;;;18.10;99.90;;;;;;5078369;28;20474;-74
2021/08/22 05:07:48;;;;;;;2.77;2.50;;;18.10;99.90;;;;;;5079969;28;20462;-74
2021/08/22 05:10:16;;;;;;;3.00;2.80;;;18.10;99.90;;;;;;5079845;28;21014;-74
2021/08/22 05:12:45;;;;;;;3.97;2.93;;;18.10;99.90;;;;;;5078654;28;20555;-74
2021/08/22 05:15:12;;;;;;;3.00;2.70;;;18.10;99.90;;;;;;5078723;28;20545;-74
2021/08/22 05:17:40;;;;;;;2.87;2.67;;;18.10;99.90;;;;;;5078580;28;20454;-75
2021/08/22 05:20:08;;;;;;;4.10;2.70;;;18.10;99.90;;;;;;5078484;28;20454;-73
2021/08/22 05:22:35;;;;;;;2.70;2.50;;;18.20;99.90;;;;;;5078563;28;20552;-74
2021/08/22 05:25:02;;;;;;;2.27;2.03;;;18.20;99.90;;;;;;5078353;28;20549;-74
2021/08/22 05:27:28;;;;;;;2.30;2.20;;;18.20;99.90;;;;;;5078044;28;20465;-74
2021/08/22 05:29:55;;;;;;;8.63;2.70;;;18.30;99.90;;;;;;5078037;28;20486;-74
2021/08/22 05:32:22;;;;;;;3.77;2.67;;;18.30;99.90;;;;;;5078087;28;20458;-74
2021/08/22 05:34:50;;;;;;;6.43;2.67;;;18.40;99.90;;;;;;5078098;28;20454;-74
2021/08/22 05:37:17;;;;;;;4.37;2.20;;;18.40;99.90;;;;;;5077481;28;20519;-74
2021/08/22 05:39:45;;;;;;;2.57;2.37;;;18.50;99.90;;;;;;5077360;28;20930;-75
2021/08/22 05:42:12;;;;;;;2.67;2.17;;;18.60;99.90;;;;;;5077415;28;20482;-74
2021/08/22 05:44:41;;;;;;;2.57;2.30;;;18.60;99.90;;;;;;5077096;28;20534;-75
2021/08/22 05:47:08;;;;;;;3.10;2.23;;;18.70;99.90;;;;;;5076933;28;20489;-74
2021/08/22 05:49:39;;;;;;;2.83;2.33;;;18.70;99.90;;;;;;5076737;28;20486;-73
2021/08/22 05:52:09;;;;;;;2.40;2.07;;;18.80;99.90;;;;;;5077227;28;20438;-73
2021/08/22 05:54:37;;;;;;;2.33;2.13;;;18.90;99.90;;;;;;5077072;28;20485;-73
2021/08/22 05:57:04;;;;;;;2.73;2.37;;;18.90;99.90;;;;;;5076647;28;20458;-73
2021/08/22 05:59:30;;;;;;;2.63;2.40;;;19.00;99.90;;;;;;5076930;28;20473;-73
2021/08/22 06:01:57;;;;;;;2.40;2.07;;;19.00;99.90;;;;;;5076458;28;20454;-75
2021/08/22 06:04:24;;;;;;;2.17;1.97;;;19.10;99.90;;;;;;5076122;28;20802;-74
2021/08/22 06:06:50;;;;;;;3.70;2.20;;;19.20;99.90;;;;;;5076698;28;20489;-74
2021/08/22 06:09:18;;;;;;;2.20;2.00;;;19.20;99.90;;;;;;5076791;28;20474;-74
2021/08/22 06:11:45;;;;;;;2.37;2.17;;;19.30;99.90;;;;;;5076540;28;20527;-74
2021/08/22 06:14:12;;;;;;;2.50;2.30;;;19.30;99.90;;;;;;5076595;28;20462;-74
2021/08/22 06:16:39;;;;;;;2.20;2.00;;;19.40;99.90;;;;;;5076660;28;20744;-74
2021/08/22 06:19:05;;;;;;;6.40;2.13;;;19.40;99.90;;;;;;5076633;28;20458;-74
2021/08/22 06:21:32;;;;;;;2.43;2.23;;;19.50;99.90;;;;;;5076319;28;20454;-74
2021/08/22 06:23:59;;;;;;;4.70;2.30;;;19.50;99.90;;;;;;5076375;28;20454;-73
2021/08/22 06:26:27;;;;;;;2.37;2.17;;;19.50;99.90;;;;;;5076380;28;20834;-74
2021/08/22 06:28:54;;;;;;;2.60;1.80;;;19.60;99.90;;;;;;5076381;28;20458;-74
2021/08/22 06:31:21;;;;;;;3.30;2.43;;;19.60;99.90;;;;;;5076265;28;20450;-75
2021/08/22 06:33:48;;;;;;;2.70;2.23;;;19.70;99.90;;;;;;5076459;28;20792;-74
2021/08/22 06:36:14;;;;;;;2.07;1.87;;;19.80;99.90;;;;;;5076755;28;20469;-75
2021/08/22 06:38:41;;;;;;;2.43;2.00;;;19.80;1.00;;;;;;5076024;28;20511;-74
2021/08/22 06:41:08;;;;;;;2.50;2.20;;;19.90;1.00;;;;;;5076458;28;20803;-74
2021/08/22 06:43:36;;;;;;;2.63;1.93;;;20.00;1.00;;;;;;5076047;28;20486;-74
2021/08/22 06:46:03;;;;;;;1.80;1.70;;;20.00;1.00;;;;;;5075752;28;20478;-75
2021/08/22 06:48:29;;;;;;;2.17;1.93;;;20.00;1.00;;;;;;5075847;28;20485;-74
2021/08/22 06:50:56;;;;;;;2.00;1.80;;;20.10;1.00;;;;;;5076106;28;20528;-74
2021/08/22 06:53:23;;;;;;;4.00;2.30;;;20.20;1.00;;;;;;5075846;28;20458;-73
2021/08/22 06:55:49;;;;;;;2.33;2.13;;;20.20;99.90;;;;;;5075199;28;20463;-74
2021/08/22 06:58:16;;;;;;;2.40;2.00;;;20.20;99.90;;;;;;5075639;28;20469;-74
2021/08/22 07:00:44;;;;;;;2.20;2.00;;;20.30;99.90;;;;;;5075621;28;20511;-74
2021/08/22 07:03:11;;;;;;;2.70;1.97;;;20.30;99.90;;;;;;5075401;28;20458;-74
2021/08/22 07:05:37;;;;;;;2.70;1.80;;;20.40;99.90;;;;;;5075416;28;20537;-74
2021/08/22 07:08:07;;;;;;;4.60;1.93;;;20.50;99.90;;;;;;5075527;28;20454;-74
2021/08/22 07:10:34;;;;;;;2.67;1.77;;;20.60;99.90;;;;;;5075192;28;21127;-74
2021/08/22 07:13:01;;;;;;;2.43;2.10;;;20.70;99.90;;;;;;5075604;28;20466;-74
2021/08/22 07:15:27;;;;;;;1.93;1.83;;;20.90;99.90;;;;;;5075238;28;20480;-74
2021/08/22 07:17:55;;;;;;;2.63;2.07;;;21.00;99.90;;;;;;5074521;28;20527;-75
2021/08/22 07:20:22;;;;;;;2.33;2.13;;;21.10;99.90;;;;;;5074867;28;20488;-74
2021/08/22 07:22:49;;;;;;;3.43;2.10;;;21.20;99.90;;;;;;5075072;28;20467;-75
2021/08/22 07:25:15;;;;;;;2.77;2.23;;;21.30;99.90;;;;;;5074998;28;20458;-74
2021/08/22 07:27:42;;;;;;;2.30;1.87;;;21.40;99.90;;;;;;5075363;28;20478;-75
2021/08/22 07:30:09;;;;;;;2.30;2.10;;;21.40;99.90;;;;;;5075058;28;20461;-74
2021/08/22 07:32:36;;;;;;;2.17;1.93;;;21.50;99.90;;;;;;5074710;28;20465;-74
2021/08/22 07:35:06;;;;;;;2.07;1.87;;;21.50;99.90;;;;;;5074800;28;20459;-74
2021/08/22 07:37:33;;;;;;;2.60;2.40;;;21.50;99.90;;;;;;5075268;28;20734;-75
2021/08/22 07:39:59;;;;;;;2.20;2.00;;;21.50;99.90;;;;;;5074801;28;20465;-74
2021/08/22 07:42:26;;;;;;;2.13;1.97;;;21.60;99.90;;;;;;5074692;28;20481;-76
2021/08/22 07:44:53;;;;;;;2.63;2.10;;;21.70;99.90;;;;;;5074706;28;20465;-74
2021/08/22 07:47:19;;;;;;;2.60;2.37;;;21.80;99.90;;;;;;5074697;28;20489;-75
2021/08/22 07:49:46;;;;;;;2.30;2.00;;;21.90;99.90;;;;;;5074958;28;20459;-74
2021/08/22 07:52:14;;;;;;;2.43;1.90;;;22.00;99.90;;;;;;5074245;28;20462;-74
2021/08/22 07:54:41;;;;;;;3.43;2.50;;;22.10;99.90;;;;;;5074859;28;20484;-74
2021/08/22 07:57:07;;;;;;;2.97;2.37;;;22.20;99.90;;;;;;5074564;28;20447;-74
2021/08/22 07:59:35;;;;;;;2.27;2.07;;;22.30;99.90;;;;;;5074696;28;20462;-73
2021/08/22 08:02:02;;;;;;;3.80;2.20;;;22.40;99.90;;;;;;5074296;28;20784;-74
2021/08/22 08:04:29;;;;;;;2.13;1.93;;;22.40;99.90;;;;;;5074250;28;20454;-74
2021/08/22 08:06:55;;;;;;;2.50;2.30;;;22.50;99.90;;;;;;5073984;28;20474;-74
2021/08/22 08:09:23;;;;;;;2.80;2.33;;;22.60;99.90;;;;;;5073895;28;20457;-74
2021/08/22 08:11:50;;;;;;;3.60;2.33;;;22.60;99.90;;;;;;5074479;28;20502;-74
2021/08/22 08:14:17;;;;;;;2.33;2.13;;;22.60;96.30;;;;;;5074460;28;20462;-74
2021/08/22 08:16:43;;;;;;;2.60;2.40;;;22.70;93.10;;;;;;5074428;28;20833;-73
2021/08/22 08:19:10;;;;;;;2.53;2.33;;;22.70;88.30;;;;;;5073822;28;20465;-74
2021/08/22 08:21:37;;;;;;;3.33;2.00;;;22.90;81.60;;;;;;5074306;28;20490;-74
2021/08/22 08:24:05;;;;;;;3.00;1.97;;;22.90;83.70;;;;;;5074698;28;20466;-77
2021/08/22 08:26:33;;;;;;;2.60;2.40;;;23.00;78.00;;;;;;5074433;28;20806;-77
2021/08/22 08:28:59;;;;;;;2.60;2.40;;;23.10;70.00;;;;;;5074441;28;20480;-76
2021/08/22 08:31:26;;;;;;;3.10;2.80;;;23.10;62.80;;;;;;5074917;28;20466;-77
2021/08/22 08:33:53;;;;;;;5.03;2.47;;;23.20;60.70;;;;;;5075406;28;20458;-77
2021/08/22 08:36:20;;;;;;;2.00;1.80;;;23.30;53.80;;;;;;5074811;28;20473;-76
2021/08/22 08:38:46;;;;;;;3.50;2.90;;;23.30;55.20;;;;;;5073885;28;20454;-76
2021/08/22 08:41:13;;;;;;;3.63;2.13;;;23.30;46.40;;;;;;5074792;28;20458;-77
2021/08/22 08:43:41;;;;;;;2.87;2.37;;;23.20;44.30;;;;;;5074033;28;20543;-77
2021/08/22 08:46:09;;;;;;;2.70;2.50;;;23.20;42.40;;;;;;5074420;28;20477;-76
2021/08/22 08:48:37;;;;;;;2.83;2.40;;;23.30;45.30;;;;;;5074369;28;20485;-77
2021/08/22 08:51:12;;;;;;;2.90;2.70;;;23.30;43.50;;;;;;5074798;28;20454;-76
2021/08/22 08:53:41;;;;;;;3.17;2.23;;;23.30;37.70;;;;;;5074255;28;20442;-75
2021/08/22 08:56:08;;;;;;;2.50;2.27;;;23.20;39.70;;;;;;5074215;28;20462;-75
2021/08/22 08:58:35;;;;;;;2.97;2.67;;;23.30;42.60;;;;;;5073859;28;20891;-75
2021/08/22 09:01:03;;;;;;;5.10;3.33;;;23.30;48.50;;;;;;5074284;28;20458;-77
2021/08/22 09:03:32;;;;;;;2.60;2.27;;;23.40;53.60;;;;;;5074756;28;20781;-76
2021/08/22 09:06:35;;;;;;;4.73;2.47;;;23.50;52.60;;;;;;5074617;28;20519;-75
2021/08/22 09:09:35;;;;;;;3.00;2.80;;;23.70;51.50;;;;;;5074940;28;20430;-76
2021/08/22 09:12:35;;;;;;;2.50;2.30;;;23.80;47.40;;;;;;5073738;28;20431;-77
2021/08/22 09:15:43;;;;;;;3.20;2.90;;;23.90;33.70;;;;;;5060761;28;20844;-75
2021/08/22 09:18:47;;;;;;;2.70;2.50;;;23.90;29.90;;;;;;5074614;28;20485;-74
2021/08/22 09:22:06;;;;;;;3.63;2.70;;;23.90;26.60;;;;;;5074601;28;20508;-74
2021/08/22 09:25:09;;;;;;;4.20;2.90;;;23.80;23.00;;;;;;5074850;28;20434;-74
2021/08/22 09:28:13;;;;;;;2.90;2.70;;;23.70;22.20;;;;;;5074306;28;20482;-74
2021/08/22 09:31:18;;;;;;;4.90;2.43;;;23.60;21.10;;;;;;5074313;28;20462;-74
2021/08/22 09:34:26;;;;;;;3.17;2.63;;;23.50;28.50;;;;;;5074547;28;20528;-75
2021/08/22 09:37:33;;;;;;;3.20;2.60;;;23.60;33.80;;;;;;5074327;28;20454;-74
2021/08/22 09:40:37;;;;;;;2.67;2.47;;;23.70;31.00;;;;;;5076167;28;20438;-74
2021/08/22 09:43:47;;;;;;;3.20;2.90;;;23.80;34.80;;;;;;5077598;28;20780;-74
2021/08/22 09:46:52;;;;;;;2.73;2.43;;;23.80;28.60;;;;;;5077962;28;20468;-74
2021/08/22 09:49:56;;;;;;;3.63;2.40;;;23.90;27.30;;;;;;5078070;28;20911;-74
2021/08/22 09:53:13;;;;;;;3.27;2.57;;;24.00;27.00;;;;;;5077968;28;20465;-74
2021/08/22 09:56:25;;;;;;;3.73;2.57;;;24.20;23.50;;;;;;5076809;28;20858;-74
2021/08/22 09:59:44;;;;;;;2.73;2.40;;;24.20;15.30;;;;;;5077393;28;20442;-74
2021/08/22 10:02:39;;;;;;;4.23;2.93;;;24.20;14.50;;;;;;5015581;28;20441;-74
2021/08/22 10:05:19;;;;;;;2.90;2.70;;;24.20;14.10;;;;;;5005713;28;20475;-74
2021/08/22 10:08:04;;;;;;;3.57;3.07;;;24.20;15.30;;;;;;5060710;28;20478;-74
2021/08/22 10:10:34;;;;;;;3.23;2.57;;;24.20;12.30;;;;;;5065755;28;20469;-74
2021/08/22 10:13:01;;;;;;;6.03;2.70;;;24.20;11.50;;;;;;5077007;28;20930;-74
2021/08/22 10:15:28;;;;;;;2.97;2.73;;;24.20;6.90;;;;;;5077753;28;20477;-74
2021/08/22 10:17:54;;;;;;;3.30;2.60;;;24.20;4.30;;;;;;5077267;28;20511;-74
2021/08/22 10:20:21;;;;;;;3.07;2.73;;;24.10;4.30;;;;;;5077893;28;20477;-74
2021/08/22 10:22:48;;;;;;;2.90;2.70;;;24.10;10.40;;;;;;5077193;28;20458;-74
2021/08/22 10:25:20;;;;;;;3.33;3.03;;;24.10;11.50;;;;;;5076714;28;20500;-74
2021/08/22 10:27:56;;;;;;;3.50;3.20;;;24.10;10.70;;;;;;5077511;28;20553;-74
2021/08/22 10:30:25;;;;;;;3.33;3.03;;;24.10;16.80;;;;;;5077562;28;20442;-74
2021/08/22 10:33:11;;;;;;;3.30;3.00;;;24.10;19.70;;;;;;5077511;28;20458;-75
2021/08/22 10:35:38;;;;;;;3.43;3.13;;;24.00;14.30;;;;;;5077107;28;20454;-74
2021/08/22 10:38:39;;;;;;;2.97;2.77;;;23.90;13.40;;;;;;5076856;28;20454;-74
2021/08/22 10:41:05;;;;;;;3.70;3.27;;;23.90;19.60;;;;;;5015440;28;20436;-74
2021/08/22 10:43:45;;;;;;;3.77;3.30;;;23.90;21.10;;;;;;5015627;28;20492;-74
2021/08/22 10:46:16;;;;;;;3.53;3.23;;;23.90;25.80;;;;;;5048082;28;20916;-74
2021/08/22 10:48:53;;;;;;;4.20;3.80;;;24.00;28.30;;;;;;5077251;28;20645;-75
2021/08/22 10:51:24;;;;;;;4.73;4.33;;;24.00;20.00;;;;;;5077140;28;20561;-73
2021/08/22 10:54:19;;;;;;;3.83;3.33;;;24.00;20.40;;;;;;5076882;28;20454;-73
2021/08/22 10:56:46;;;;;;;3.70;3.40;;;24.00;18.70;;;;;;5070300;28;20521;-74
2021/08/22 10:59:15;;;;;;;3.70;3.40;;;24.00;16.50;;;;;;5077709;28;20919;-73
2021/08/22 11:01:43;;;;;;;5.10;3.80;;;24.00;18.00;;;;;;5077328;28;20472;-75
2021/08/22 11:04:11;;;;;;;6.90;3.60;;;24.00;18.70;;;;;;5077340;28;20965;-74
2021/08/22 11:06:52;;;;;;;3.90;3.50;;;24.00;18.30;;;;;;5077495;28;20450;-74
2021/08/22 11:09:37;;;;;;;5.30;3.73;;;24.00;20.40;;;;;;5077310;28;20553;-73
2021/08/22 11:12:05;;;;;;;4.83;3.57;;;24.00;22.50;;;;;;5077032;28;20438;-74
2021/08/22 11:14:33;;;;;;;6.03;4.60;;;23.90;24.60;;;;;;5076503;28;20462;-75
2021/08/22 11:17:00;;;;;;;4.90;4.50;;;23.80;27.20;;;;;;5078020;28;20461;-74
2021/08/22 11:19:27;;;;;;;5.37;4.37;;;23.70;31.50;;;;;;5079012;28;20477;-74
2021/08/22 11:21:54;;;;;;;5.27;4.77;;;23.60;42.90;;;;;;5078624;28;20810;-74
2021/08/22 11:24:21;;;;;;;4.80;4.40;;;23.60;71.40;;;;;;5078916;28;20537;-74
2021/08/22 11:26:48;;;;;;;4.83;4.33;;;23.40;99.90;;;;;;5079070;28;20473;-74
2021/08/22 11:29:14;;;;;;;6.20;4.77;;;23.30;99.90;;;;;;5079709;28;20774;-74
2021/08/22 11:31:43;;;;;;;5.10;4.30;;;23.20;99.90;;;;;;5080056;28;20469;-75
2021/08/22 11:34:12;;;;;;;6.40;5.07;;;23.10;1.00;;;;;;5080420;28;20468;-74
2021/08/22 11:36:39;;;;;;;8.97;5.40;;;23.10;99.90;;;;;;5081657;28;20469;-74
2021/08/22 11:39:14;;;;;;;6.33;5.67;;;23.00;1.00;;;;;;5081462;28;20465;-74
2021/08/22 11:41:46;;;;;;;7.90;5.63;;;22.90;99.90;;;;;;5083525;28;20511;-74
2021/08/22 11:44:12;;;;;;;6.50;5.57;;;22.70;99.90;;;;;;5085197;28;20455;-74
2021/08/22 11:46:39;;;;;;;8.37;5.50;;;22.60;99.90;;;;;;5085969;28;20454;-74
2021/08/22 11:49:08;;;;;;;6.90;6.20;;;22.50;99.90;;;;;;5085276;28;20474;-74
2021/08/22 11:51:35;;;;;;;7.17;6.40;;;22.40;99.90;;;;;;5085383;28;20446;-74
2021/08/22 11:54:02;;;;;;;7.00;6.30;;;22.30;99.90;;;;;;5088596;28;20462;-74
2021/08/22 11:56:29;;;;;;;8.13;5.93;;;22.20;99.90;;;;;;5089275;28;20891;-74
2021/08/22 11:58:56;;;;;;;6.73;6.10;;;22.10;99.90;;;;;;5089981;28;20454;-74
2021/08/22 12:01:27;;;;;;;6.70;6.00;;;22.00;99.90;;;;;;5089889;28;20507;-74
2021/08/22 12:03:58;;;;;;;6.90;6.30;;;21.80;99.90;;;;;;5090210;28;20438;-75
2021/08/22 12:06:27;;;;;;;9.03;7.07;;;21.80;99.90;;;;;;5088625;28;20465;-74
2021/08/22 12:08:54;;;;;;;7.33;6.63;;;21.70;99.90;;;;;;5087913;28;20493;-74
2021/08/22 12:11:25;;;;;;;8.83;7.93;;;21.60;99.90;;;;;;5087790;28;20541;-76
2021/08/22 12:13:54;;;;;;;13.07;8.07;;;21.60;99.90;;;;;;5085916;28;20477;-75
2021/08/22 12:16:29;;;;;;;8.70;7.10;;;21.50;99.90;;;;;;5084812;28;20815;-74
2021/08/22 12:19:12;;;;;;;9.53;7.47;;;21.50;99.90;;;;;;5084148;28;20429;-75
2021/08/22 12:21:40;;;;;;;10.13;7.40;;;21.50;99.90;;;;;;5084665;28;20763;-75
2021/08/22 12:24:19;;;;;;;9.80;6.93;;;21.40;99.90;;;;;;5083181;28;20915;-74
2021/08/22 12:26:50;;;;;;;9.23;6.30;;;21.40;99.90;;;;;;5082923;28;20524;-74
2021/08/22 12:29:17;;;;;;;7.73;6.37;;;21.40;99.90;;;;;;5083577;28;20493;-75
2021/08/22 12:31:44;;;;;;;8.40;6.93;;;21.30;99.90;;;;;;5083590;28;20621;-75
2021/08/22 12:34:12;;;;;;;12.13;6.50;;;21.30;99.90;;;;;;5084054;28;20512;-75
2021/08/22 12:36:42;;;;;;;7.20;6.50;;;21.30;99.90;;;;;;5081951;28;20565;-75
2021/08/22 12:39:10;;;;;;;7.10;6.43;;;21.20;99.90;;;;;;5081377;28;20871;-75
2021/08/22 12:41:43;;;;;;;7.10;6.50;;;21.20;99.90;;;;;;5081317;28;20454;-74
2021/08/22 12:44:11;;;;;;;7.30;6.60;;;21.20;99.90;;;;;;5081185;28;20529;-75
2021/08/22 12:46:39;;;;;;;7.20;6.50;;;21.10;99.90;;;;;;5080948;28;20458;-75
2021/08/22 12:49:07;;;;;;;7.77;7.00;;;21.10;99.90;;;;;;5081609;28;20481;-73
2021/08/22 12:51:37;;;;;;;7.83;7.00;;;21.10;99.90;;;;;;5080728;28;20455;-75
2021/08/22 12:54:07;;;;;;;7.83;7.13;;;21.00;99.90;;;;;;5081204;28;20458;-75
2021/08/22 12:56:33;;;;;;;9.73;7.50;;;21.00;99.90;;;;;;5081957;28;20465;-75
2021/08/22 12:59:00;;;;;;;7.73;7.03;;;21.00;99.90;;;;;;5082041;28;20450;-75
2021/08/22 13:01:27;;;;;;;8.00;6.60;;;21.00;99.90;;;;;;5081071;28;20458;-76
2021/08/22 13:03:55;;;;;;;8.67;7.50;;;21.00;99.90;;;;;;5083433;28;20459;-75
2021/08/22 13:06:22;;;;;;;7.93;7.20;;;21.00;99.90;;;;;;5082356;28;20474;-75